createdAt,value
2022-11-14T00:01:11.407Z,1.42
2022-11-14T00:04:02.421Z,1.51
2022-11-14T00:06:54.080Z,1.54
2022-11-14T00:09:45.172Z,1.54
2022-11-14T00:12:36.603Z,1.53
2022-11-14T00:15:27.736Z,1.61
2022-11-14T00:18:19.600Z,1.64
2022-11-14T00:21:10.967Z,1.65
2022-11-14T00:24:02.202Z,1.64
2022-11-14T00:26:53.556Z,1.64
2022-11-14T00:29:44.870Z,1.64
2022-11-14T00:32:36.593Z,1.68
2022-11-14T00:35:27.990Z,1.70
2022-11-14T00:38:19.335Z,1.71
2022-11-14T00:41:10.549Z,1.70
2022-11-14T00:44:01.931Z,1.69
2022-11-14T00:46:53.334Z,1.67
2022-11-14T00:49:44.679Z,1.64
2022-11-14T00:52:36.039Z,1.62
2022-11-14T00:55:27.103Z,1.57
2022-11-14T00:58:18.458Z,1.51
2022-11-14T01:01:10.429Z,1.50
2022-11-14T01:04:02.165Z,1.56
2022-11-14T01:06:53.284Z,1.59
2022-11-14T01:09:44.478Z,1.57
2022-11-14T01:12:36.611Z,1.58
2022-11-14T01:15:28.053Z,1.49
2022-11-14T01:18:21.904Z,1.44
2022-11-14T01:21:14.983Z,1.43
2022-11-14T01:24:07.577Z,1.41
2022-11-14T01:26:58.950Z,1.37
2022-11-14T01:29:50.765Z,1.38
2022-11-14T01:32:41.572Z,1.40
2022-11-14T01:35:34.712Z,1.39
2022-11-14T01:38:26.186Z,1.38
2022-11-14T01:41:18.420Z,1.39
2022-11-14T01:44:17.112Z,1.35
2022-11-14T01:47:09.157Z,1.32
2022-11-14T01:50:02.500Z,1.29
2022-11-14T01:52:54.321Z,1.26
2022-11-14T01:55:46.066Z,1.25
2022-11-14T01:58:40.103Z,1.22
2022-11-14T02:01:34.694Z,1.15
2022-11-14T02:04:28.187Z,1.15
2022-11-14T02:07:20.209Z,1.12
2022-11-14T02:10:14.732Z,1.12
2022-11-14T02:13:06.491Z,1.10
2022-11-14T02:15:57.925Z,1.04
2022-11-14T02:18:49.219Z,1.02
2022-11-14T02:21:40.439Z,1.01
2022-11-14T02:24:31.874Z,0.99
2022-11-14T02:27:23.466Z,0.98
2022-11-14T02:30:18.102Z,0.94
2022-11-14T02:33:11.305Z,0.91
2022-11-14T02:36:02.309Z,0.90
2022-11-14T02:38:53.629Z,0.92
2022-11-14T02:41:44.718Z,0.90
2022-11-14T02:44:35.854Z,0.92
2022-11-14T02:47:27.249Z,0.89
2022-11-14T02:50:19.401Z,0.91
2022-11-14T02:53:10.635Z,0.90
2022-11-14T02:56:01.484Z,0.87
2022-11-14T02:58:52.641Z,0.87
2022-11-14T03:01:44.048Z,0.89
2022-11-14T03:04:34.704Z,0.88
2022-11-14T03:07:26.066Z,0.89
2022-11-14T03:10:17.665Z,0.90
2022-11-14T03:13:08.928Z,0.87
2022-11-14T03:16:01.923Z,0.86
2022-11-14T03:18:52.800Z,0.92
2022-11-14T03:21:43.813Z,0.91
2022-11-14T03:24:35.125Z,0.91
2022-11-14T03:27:26.412Z,0.88
2022-11-14T03:30:18.519Z,0.84
2022-11-14T03:33:09.899Z,0.83
2022-11-14T03:36:01.041Z,0.83
2022-11-14T03:38:52.480Z,0.85
2022-11-14T03:41:43.639Z,0.84
2022-11-14T03:44:35.134Z,0.83
2022-11-14T03:47:26.605Z,0.82
2022-11-14T03:50:17.999Z,0.82
2022-11-14T03:53:09.234Z,0.83
2022-11-14T03:56:00.669Z,0.87
2022-11-14T03:58:51.548Z,0.91
2022-11-14T04:01:43.285Z,0.89
2022-11-14T04:04:34.782Z,0.82
2022-11-14T04:07:25.995Z,0.79
2022-11-14T04:10:17.670Z,0.73
2022-11-14T04:13:09.750Z,0.73
2022-11-14T04:16:01.558Z,0.72
2022-11-14T04:18:52.848Z,0.62
2022-11-14T04:21:44.145Z,0.52
2022-11-14T04:24:35.695Z,0.49
2022-11-14T04:27:26.744Z,0.50
2022-11-14T04:30:18.736Z,0.46
2022-11-14T04:33:10.263Z,0.39
2022-11-14T04:36:01.694Z,0.32
2022-11-14T04:38:52.747Z,0.31
2022-11-14T04:41:44.045Z,0.26
2022-11-14T04:44:35.361Z,0.22
2022-11-14T04:47:26.525Z,0.18
2022-11-14T04:50:17.271Z,0.17
2022-11-14T04:53:08.837Z,0.15
2022-11-14T04:55:59.922Z,0.06
2022-11-14T04:58:51.235Z,-0.05
2022-11-14T05:01:42.594Z,-0.16
2022-11-14T05:04:33.872Z,-0.28
2022-11-14T05:07:25.010Z,-0.37
2022-11-14T05:10:16.443Z,-0.45
2022-11-14T05:13:07.517Z,-0.55
2022-11-14T05:16:01.092Z,-0.65
2022-11-14T05:18:53.487Z,-0.73
2022-11-14T05:21:44.864Z,-0.82
2022-11-14T05:24:36.018Z,-0.90
2022-11-14T05:27:27.490Z,-0.96
2022-11-14T05:30:20.683Z,-1.00
2022-11-14T05:33:11.692Z,-1.02
2022-11-14T05:36:06.544Z,-0.92
2022-11-14T05:38:58.015Z,-0.40
2022-11-14T05:41:49.205Z,0.06
2022-11-14T05:44:40.249Z,0.26
2022-11-14T05:47:31.310Z,0.59
2022-11-14T05:50:22.506Z,0.75
2022-11-14T05:53:13.326Z,0.43
2022-11-14T05:56:05.535Z,0.12
2022-11-14T05:58:58.400Z,-0.08
2022-11-14T06:01:49.707Z,-0.01
2022-11-14T06:04:41.352Z,0.78
2022-11-14T06:07:34.178Z,1.70
2022-11-14T06:10:25.582Z,2.51
2022-11-14T06:13:16.865Z,3.25
2022-11-14T06:16:11.304Z,3.92
2022-11-14T06:19:02.808Z,4.33
2022-11-14T06:21:54.108Z,4.63
2022-11-14T06:24:45.400Z,4.79
2022-11-14T06:27:36.596Z,5.27
2022-11-14T06:30:27.311Z,5.68
2022-11-14T06:33:18.432Z,6.15
2022-11-14T06:36:11.782Z,6.56
2022-11-14T06:39:02.668Z,6.89
2022-11-14T06:41:53.832Z,7.15
2022-11-14T06:44:45.310Z,7.38
2022-11-14T06:47:36.480Z,7.74
2022-11-14T06:50:28.720Z,8.08
2022-11-14T06:53:20.016Z,8.27
2022-11-14T06:56:13.555Z,8.53
2022-11-14T06:59:05.050Z,8.94
2022-11-14T07:01:56.092Z,9.39
2022-11-14T07:04:47.243Z,9.49
2022-11-14T07:07:38.756Z,9.47
2022-11-14T07:10:30.160Z,9.89
2022-11-14T07:13:21.791Z,10.27
2022-11-14T07:16:12.847Z,10.41
2022-11-14T07:19:06.175Z,10.65
2022-11-14T07:21:57.368Z,10.68
2022-11-14T07:24:48.465Z,10.99
2022-11-14T07:27:39.775Z,11.12
2022-11-14T07:30:30.675Z,11.47
2022-11-14T07:33:22.061Z,11.79
2022-11-14T07:36:14.738Z,12.09
2022-11-14T07:39:06.138Z,12.14
2022-11-14T07:41:57.617Z,12.42
2022-11-14T07:44:48.866Z,12.80
2022-11-14T07:47:39.643Z,12.94
2022-11-14T07:50:31.869Z,13.36
2022-11-14T07:53:22.792Z,13.89
2022-11-14T07:56:16.616Z,14.41
2022-11-14T07:59:08.148Z,14.45
2022-11-14T08:01:59.749Z,14.36
2022-11-14T08:04:50.674Z,14.49
2022-11-14T08:07:42.291Z,14.40
2022-11-14T08:10:33.948Z,14.60
2022-11-14T08:13:32.149Z,15.12
2022-11-14T08:16:18.615Z,15.59
2022-11-14T08:19:10.275Z,15.60
2022-11-14T08:22:01.534Z,15.91
2022-11-14T08:24:53.004Z,16.00
2022-11-14T08:27:44.228Z,15.88
2022-11-14T08:30:36.239Z,16.25
2022-11-14T08:33:27.499Z,16.77
2022-11-14T08:36:19.101Z,17.17
2022-11-14T08:39:10.515Z,17.42
2022-11-14T08:42:01.289Z,17.69
2022-11-14T08:44:52.885Z,17.66
2022-11-14T08:47:44.032Z,18.02
2022-11-14T08:50:35.417Z,17.99
2022-11-14T08:53:27.053Z,17.97
2022-11-14T08:56:18.077Z,18.14
2022-11-14T08:59:09.324Z,18.24
2022-11-14T09:02:00.221Z,17.90
2022-11-14T09:04:51.785Z,17.82
2022-11-14T09:07:42.757Z,18.34
2022-11-14T09:10:34.293Z,18.53
2022-11-14T09:13:27.834Z,18.75
2022-11-14T09:16:19.533Z,18.09
2022-11-14T09:19:11.074Z,17.84
2022-11-14T09:22:02.217Z,17.60
2022-11-14T09:24:53.443Z,17.80
2022-11-14T09:27:45.125Z,18.25
2022-11-14T09:30:37.105Z,18.71
2022-11-14T09:33:28.565Z,19.15
2022-11-14T09:36:20.345Z,19.39
2022-11-14T09:39:11.696Z,19.41
2022-11-14T09:42:15.833Z,19.61
2022-11-14T09:45:04.454Z,19.91
2022-11-14T09:47:58.545Z,20.30
2022-11-14T09:53:37.088Z,19.44
2022-11-14T09:56:30.085Z,19.39
2022-11-14T09:59:21.615Z,19.95
2022-11-14T10:02:21.784Z,20.17
2022-11-14T10:05:20.988Z,19.67
2022-11-14T10:08:29.044Z,19.32
2022-11-14T10:11:24.525Z,18.85
2022-11-14T10:14:53.420Z,18.49
2022-11-14T10:17:53.222Z,18.53
2022-11-14T10:20:48.173Z,19.30
2022-11-14T10:23:42.839Z,20.09
2022-11-14T10:26:37.158Z,19.31
2022-11-14T10:30:06.420Z,19.19
2022-11-14T10:33:21.358Z,19.20
2022-11-14T10:36:15.831Z,19.06
2022-11-14T10:39:11.937Z,19.40
2022-11-14T10:42:07.913Z,19.74
2022-11-14T10:45:02.474Z,19.12
2022-11-14T10:47:57.062Z,18.57
2022-11-14T10:50:51.865Z,18.12
2022-11-14T10:53:52.865Z,17.54
2022-11-14T10:56:51.471Z,16.68
2022-11-14T10:59:43.243Z,16.23
2022-11-14T11:02:52.284Z,15.14
2022-11-14T11:05:52.075Z,15.49
2022-11-14T11:09:03.413Z,15.62
2022-11-14T11:12:01.695Z,15.50
2022-11-14T11:14:56.064Z,14.34
2022-11-14T11:17:58.829Z,14.67
2022-11-14T11:20:54.088Z,14.11
2022-11-14T11:23:53.366Z,14.18
2022-11-14T11:26:44.696Z,14.42
2022-11-14T11:29:36.085Z,15.33
2022-11-14T11:32:28.468Z,16.15
2022-11-14T11:35:20.454Z,16.81
2022-11-14T11:38:15.880Z,16.40
2022-11-14T11:41:25.817Z,16.27
2022-11-14T11:44:08.808Z,16.50
2022-11-14T11:47:02.781Z,16.64
2022-11-14T11:49:54.995Z,16.92
2022-11-14T11:52:49.887Z,16.94
2022-11-14T11:55:45.043Z,16.85
2022-11-14T11:58:39.501Z,17.07
2022-11-14T12:01:31.159Z,16.11
2022-11-14T12:04:22.936Z,15.92
2022-11-14T12:07:17.299Z,15.81
2022-11-14T12:10:15.236Z,15.45
2022-11-14T12:13:09.346Z,14.74
2022-11-14T12:16:12.877Z,14.31
2022-11-14T12:22:38.436Z,14.35
2022-11-14T12:25:48.133Z,14.14
2022-11-14T12:28:50.357Z,14.05
2022-11-14T12:31:42.836Z,13.86
2022-11-14T12:34:36.894Z,13.31
2022-11-14T12:37:31.781Z,13.23
2022-11-14T12:40:36.112Z,13.31
2022-11-14T12:43:37.322Z,13.16
2022-11-14T12:46:28.693Z,12.53
2022-11-14T12:49:42.090Z,11.34
2022-11-14T12:52:49.654Z,10.46
2022-11-14T12:56:11.608Z,9.93
2022-11-14T12:59:31.372Z,9.81
2022-11-14T13:02:58.184Z,9.05
2022-11-14T13:05:58.736Z,8.45
2022-11-14T13:09:29.764Z,8.10
2022-11-14T13:12:49.310Z,7.76
2022-11-14T13:16:07.782Z,7.47
2022-11-14T13:19:19.543Z,6.93
2022-11-14T13:22:52.518Z,6.14
2022-11-14T13:25:43.315Z,5.18
2022-11-14T13:28:51.767Z,4.27
2022-11-14T13:31:50.506Z,3.59
2022-11-14T13:34:47.217Z,3.19
2022-11-14T13:37:56.983Z,2.85
2022-11-14T13:43:38.726Z,2.55
2022-11-14T13:46:37.552Z,2.47
2022-11-14T13:49:46.360Z,2.45
2022-11-14T13:52:43.656Z,2.38
2022-11-14T13:55:40.655Z,2.38
2022-11-14T13:58:48.934Z,2.33
2022-11-14T14:01:46.839Z,2.19
2022-11-14T14:04:44.370Z,1.98
2022-11-14T14:07:40.855Z,1.84
2022-11-14T14:10:35.530Z,1.84
2022-11-14T14:13:34.448Z,1.89
2022-11-14T14:16:29.279Z,1.75
2022-11-14T14:19:26.213Z,1.65
2022-11-14T14:22:21.898Z,1.60
2022-11-14T14:25:18.026Z,1.65
2022-11-14T14:28:14.099Z,1.67
2022-11-14T14:31:08.477Z,1.80
2022-11-14T14:33:59.787Z,1.86
2022-11-14T14:36:55.295Z,1.94
2022-11-14T14:40:01.264Z,1.95
2022-11-14T14:42:52.905Z,1.82
2022-11-14T14:45:50.575Z,1.80
2022-11-14T14:48:45.442Z,1.68
2022-11-14T14:51:39.145Z,1.59
2022-11-14T14:54:31.276Z,1.47
2022-11-14T14:57:23.599Z,1.45
2022-11-14T15:00:25.333Z,1.38
2022-11-14T15:03:16.574Z,1.32
2022-11-14T15:06:20.633Z,1.31
2022-11-14T15:09:14.790Z,1.52
2022-11-14T15:12:07.980Z,1.73
2022-11-14T15:15:01.010Z,1.78
2022-11-14T15:17:54.102Z,1.85
2022-11-14T15:20:44.844Z,1.93
2022-11-14T15:23:37.115Z,1.90
2022-11-14T15:26:29.788Z,1.77
2022-11-14T15:29:23.633Z,1.88
2022-11-14T15:32:22.163Z,1.92
2022-11-14T15:35:26.035Z,1.96
2022-11-14T15:41:25.322Z,1.95
2022-11-14T15:44:33.501Z,2.03
2022-11-14T15:47:29.449Z,2.09
2022-11-14T15:50:32.657Z,2.16
2022-11-14T15:53:28.376Z,2.09
2022-11-14T15:56:20.305Z,2.14
2022-11-14T15:59:12.200Z,2.23
2022-11-14T16:02:06.074Z,2.31
2022-11-14T16:04:59.326Z,2.35
2022-11-14T16:07:50.927Z,2.35
2022-11-14T16:10:42.463Z,2.34
2022-11-14T16:13:34.382Z,2.34
2022-11-14T16:16:26.058Z,2.16
2022-11-14T16:19:18.251Z,2.15
2022-11-14T16:22:13.081Z,2.27
2022-11-14T16:25:04.898Z,2.34
2022-11-14T16:27:56.748Z,2.37
2022-11-14T16:30:48.195Z,2.36
2022-11-14T16:33:39.472Z,2.31
2022-11-14T16:36:31.486Z,2.28
2022-11-14T16:39:23.030Z,2.23
2022-11-14T16:42:14.727Z,2.23
2022-11-14T16:45:07.708Z,2.30
2022-11-14T16:47:59.341Z,2.28
2022-11-14T16:50:56.562Z,2.23
2022-11-14T16:53:43.977Z,2.17
2022-11-14T16:56:35.271Z,2.13
2022-11-14T16:59:26.630Z,2.08
2022-11-14T17:02:18.633Z,2.10
2022-11-14T17:05:10.626Z,2.11
2022-11-14T17:08:02.116Z,2.11
2022-11-14T17:10:53.203Z,2.14
2022-11-14T17:13:44.661Z,2.13
2022-11-14T17:16:35.996Z,1.96
2022-11-14T17:19:28.542Z,1.86
2022-11-14T17:22:20.719Z,1.76
2022-11-14T17:25:13.178Z,1.84
2022-11-14T17:28:03.995Z,1.95
2022-11-14T17:30:55.308Z,1.97
2022-11-14T17:33:48.240Z,1.98
2022-11-14T17:36:39.534Z,1.93
2022-11-14T17:39:30.786Z,1.93
2022-11-14T17:42:22.019Z,1.93
2022-11-14T17:45:14.041Z,1.96
2022-11-14T17:48:05.378Z,1.98
2022-11-14T17:50:56.899Z,2.00
2022-11-14T17:53:48.077Z,2.02
2022-11-14T17:56:45.733Z,2.02
2022-11-14T17:59:31.736Z,1.93
2022-11-14T18:02:22.704Z,1.89
2022-11-14T18:05:14.010Z,1.90
2022-11-14T18:08:05.193Z,2.00
2022-11-14T18:10:57.730Z,2.05
2022-11-14T18:13:49.077Z,2.03
2022-11-14T18:17:10.395Z,1.97
2022-11-14T18:19:33.551Z,1.95
2022-11-14T18:22:24.834Z,1.86
2022-11-14T18:25:15.731Z,1.83
2022-11-14T18:28:06.997Z,1.84
2022-11-14T18:30:58.686Z,1.85
2022-11-14T18:33:50.498Z,1.76
2022-11-14T18:36:41.821Z,1.71
2022-11-14T18:39:33.326Z,1.70
2022-11-14T18:42:24.461Z,1.65
2022-11-14T18:45:15.657Z,1.60
2022-11-14T18:48:08.059Z,1.56
2022-11-14T18:51:04.433Z,1.52
2022-11-14T18:53:56.308Z,1.54
2022-11-14T18:56:47.864Z,1.65
2022-11-14T18:59:38.848Z,1.71
2022-11-14T19:02:30.483Z,1.74
2022-11-14T19:05:21.656Z,1.75
2022-11-14T19:08:12.822Z,1.78
2022-11-14T19:11:08.377Z,1.81
2022-11-14T19:14:03.106Z,1.82
2022-11-14T19:16:54.783Z,1.80
2022-11-14T19:19:45.877Z,1.81
2022-11-14T19:22:36.290Z,1.80
2022-11-14T19:25:27.628Z,1.70
2022-11-14T19:28:19.950Z,1.58
2022-11-14T19:31:11.875Z,1.22
2022-11-14T19:34:03.021Z,1.51
2022-11-14T19:37:02.213Z,1.52
2022-11-14T19:39:48.077Z,1.35
2022-11-14T19:42:39.256Z,1.33
2022-11-14T19:45:30.167Z,1.29
2022-11-14T19:48:22.056Z,1.27
2022-11-14T19:51:16.979Z,1.21
2022-11-14T19:54:08.719Z,1.18
2022-11-14T19:56:59.862Z,1.18
2022-11-14T19:59:50.957Z,1.18
2022-11-14T20:02:42.184Z,1.21
2022-11-14T20:05:35.076Z,1.24
2022-11-14T20:08:26.869Z,1.27
2022-11-14T20:11:18.637Z,1.28
2022-11-14T20:14:11.022Z,1.26
2022-11-14T20:17:02.229Z,1.27
2022-11-14T20:19:54.075Z,1.25
2022-11-14T20:22:45.581Z,1.20
2022-11-14T20:25:39.222Z,1.15
2022-11-14T20:28:30.848Z,1.15
2022-11-14T20:31:23.623Z,1.19
2022-11-14T20:34:15.027Z,1.12
2022-11-14T20:37:11.485Z,1.14
2022-11-14T20:39:59.641Z,1.17
2022-11-14T20:42:51.647Z,1.21
2022-11-14T20:45:43.181Z,1.23
2022-11-14T20:48:35.686Z,1.25
2022-11-14T20:51:28.401Z,1.24
2022-11-14T20:54:19.736Z,1.17
2022-11-14T20:57:11.318Z,1.05
2022-11-14T21:00:02.691Z,1.06
2022-11-14T21:02:55.046Z,1.01
2022-11-14T21:05:46.593Z,1.02
2022-11-14T21:08:38.357Z,0.99
2022-11-14T21:11:29.572Z,1.03
2022-11-14T21:14:20.699Z,1.05
2022-11-14T21:17:11.976Z,1.05
2022-11-14T21:20:03.982Z,1.05
2022-11-14T21:22:54.988Z,0.97
2022-11-14T21:25:46.470Z,0.93
2022-11-14T21:28:39.446Z,0.86
2022-11-14T21:31:33.535Z,0.86
2022-11-14T21:34:24.788Z,0.84
2022-11-14T21:37:16.267Z,0.90
2022-11-14T21:40:09.551Z,0.96
2022-11-14T21:43:00.893Z,0.98
2022-11-14T21:46:00.172Z,0.93
2022-11-14T21:48:51.944Z,0.89
2022-11-14T21:51:43.596Z,0.90
2022-11-14T21:54:34.476Z,0.90
2022-11-14T21:57:25.829Z,0.88
2022-11-14T22:00:19.109Z,0.87
2022-11-14T22:03:33.998Z,0.87
2022-11-14T22:06:26.033Z,0.85
2022-11-14T22:09:16.876Z,0.86
2022-11-14T22:12:09.203Z,0.86
2022-11-14T22:15:00.184Z,0.89
2022-11-14T22:17:51.403Z,0.85
2022-11-14T22:20:42.447Z,0.88
2022-11-14T22:23:33.920Z,0.87
2022-11-14T22:26:25.940Z,0.85
2022-11-14T22:29:17.083Z,0.84
2022-11-14T22:32:09.086Z,0.87
2022-11-14T22:35:00.392Z,0.82
2022-11-14T22:37:51.460Z,0.77
2022-11-14T22:40:42.882Z,0.76
2022-11-14T22:43:34.618Z,0.78
2022-11-14T22:46:27.526Z,0.82
2022-11-14T22:49:21.259Z,0.83
2022-11-14T22:52:11.723Z,0.86
2022-11-14T22:55:03.175Z,0.91
2022-11-14T22:57:54.578Z,0.85
2022-11-14T23:00:45.926Z,0.74
2022-11-14T23:03:37.637Z,0.64
2022-11-14T23:06:30.676Z,0.61
2022-11-14T23:09:21.706Z,0.63
2022-11-14T23:12:13.048Z,0.64
2022-11-14T23:15:04.838Z,0.63
2022-11-14T23:17:56.488Z,0.68
2022-11-14T23:20:47.886Z,0.71
2022-11-14T23:23:39.148Z,0.73
2022-11-14T23:26:31.269Z,0.64
2022-11-14T23:29:22.612Z,0.53
2022-11-14T23:32:13.674Z,0.44
2022-11-14T23:35:04.810Z,0.41
2022-11-14T23:37:56.140Z,0.38
2022-11-14T23:40:48.891Z,0.33
2022-11-14T23:43:40.575Z,0.25
2022-11-14T23:46:31.896Z,0.20
2022-11-14T23:49:22.841Z,0.24
2022-11-14T23:52:13.891Z,0.30
2022-11-14T23:55:05.890Z,0.30
2022-11-14T23:57:56.933Z,0.27
